Time;durP1;ratioP1;P1;durP2;ratioP2;P2;SDS_P1;SDS_P2;PMS_P1;PMS_P2;Temp;Humidity;BMP_temperature;BMP_pressure;BME280_temperature;BME280_humidity;BME280_pressure;Samples;Min_cycle;Max_cycle;Signal;HPM_P1;HPM_P2
2021/12/31 00:00:22;;;;;;;6.43;3.15;;;;;;;12.33;86.53;101728.38;5080757;28;20134;-73
2021/12/31 00:02:51;;;;;;;6.88;3.40;;;;;;;12.35;86.51;101739.72;5100887;27;20039;-74
2021/12/31 00:05:16;;;;;;;8.05;3.17;;;;;;;12.34;86.43;101731.84;5104725;28;21029;-72
2021/12/31 00:07:43;;;;;;;8.15;3.65;;;;;;;12.33;86.77;101727.50;5109604;27;20471;-73
2021/12/31 00:10:18;;;;;;;8.07;4.38;;;;;;;12.32;86.66;101736.25;5090085;27;20039;-72
2021/12/31 00:12:44;;;;;;;13.18;3.55;;;;;;;12.30;86.46;101725.75;5099479;27;20379;-72
2021/12/31 00:15:11;;;;;;;7.10;3.20;;;;;;;12.29;86.52;101724.00;5091907;27;20037;-72
2021/12/31 00:18:28;;;;;;;7.50;3.47;;;;;;;12.30;86.92;101736.28;5088608;27;20051;-72
2021/12/31 00:20:57;;;;;;;7.28;3.67;;;;;;;12.27;86.59;101736.28;5079453;28;20403;-72
2021/12/31 00:23:25;;;;;;;10.15;3.10;;;;;;;12.28;86.11;101735.38;5086520;27;20034;-72
2021/12/31 00:25:51;;;;;;;3.65;2.63;;;;;;;12.27;86.33;101737.16;5091798;27;20454;-72
2021/12/31 00:28:17;;;;;;;7.45;3.30;;;;;;;12.29;86.11;101727.50;5099248;27;20376;-71
2021/12/31 00:30:43;;;;;;;5.78;3.35;;;;;;;12.30;85.61;101731.88;5102696;27;20030;-72
2021/12/31 00:33:09;;;;;;;6.38;3.10;;;;;;;12.32;85.41;101744.16;5087226;27;20065;-73
2021/12/31 00:35:37;;;;;;;4.65;2.95;;;;;;;12.34;84.91;101738.00;5101622;28;20107;-71
2021/12/31 00:38:03;;;;;;;6.10;3.10;;;;;;;12.34;85.30;101735.38;5097440;27;20083;-73
2021/12/31 00:40:31;;;;;;;9.27;3.05;;;;;;;12.35;84.96;101738.88;5102610;27;20093;-73
2021/12/31 00:42:57;;;;;;;7.38;2.60;;;;;;;12.34;85.26;101739.75;5090009;27;20036;-72
2021/12/31 00:45:27;;;;;;;5.72;2.75;;;;;;;12.35;84.87;101741.50;5121032;27;20107;-72
2021/12/31 00:47:54;;;;;;;5.45;2.67;;;;;;;12.34;84.99;101745.00;5103189;27;20075;-72
2021/12/31 00:50:20;;;;;;;9.85;3.25;;;;;;;12.34;84.56;101738.00;5102175;27;20035;-70
2021/12/31 00:52:45;;;;;;;8.95;2.90;;;;;;;12.35;84.72;101737.09;5097259;28;20044;-72
2021/12/31 00:55:12;;;;;;;4.40;2.83;;;;;;;12.34;84.87;101743.25;5074711;28;20772;-74
2021/12/31 00:57:38;;;;;;;4.47;2.38;;;;;;;12.32;84.71;101734.50;5091697;28;20065;-71
2021/12/31 01:00:07;;;;;;;3.33;2.38;;;;;;;12.32;84.45;101734.50;5101673;28;20020;-72
2021/12/31 01:02:33;;;;;;;6.72;2.70;;;;;;;12.34;84.31;101738.00;5098827;28;20035;-72
2021/12/31 01:04:58;;;;;;;8.30;3.28;;;;;;;12.34;84.45;101731.84;5085000;28;20032;-73
2021/12/31 01:07:24;;;;;;;5.05;2.95;;;;;;;12.34;84.37;101738.00;5068794;28;20113;-73
2021/12/31 01:10:11;;;;;;;6.75;2.67;;;;;;;12.34;84.67;101742.38;5080905;28;20054;-73
2021/12/31 01:12:36;;;;;;;4.30;2.40;;;;;;;12.34;84.58;101738.00;5120819;27;20043;-73
2021/12/31 01:15:06;;;;;;;3.85;2.92;;;;;;;12.33;84.23;101741.50;5109891;28;20483;-74
2021/12/31 01:20:10;;;;;;;7.85;2.75;;;;;;;12.34;84.39;101734.50;5093031;28;20083;-72
2021/12/31 01:22:36;;;;;;;6.57;3.35;;;;;;;12.34;84.04;101745.00;5083121;28;20034;-74
2021/12/31 01:25:04;;;;;;;5.00;2.42;;;;;;;12.34;84.18;101738.00;5089570;27;20395;-74
2021/12/31 01:27:30;;;;;;;9.13;2.88;;;;;;;12.32;84.34;101744.16;5084494;28;20039;-73
2021/12/31 01:29:56;;;;;;;10.45;3.00;;;;;;;12.33;84.11;101731.00;5101611;28;20027;-72
2021/12/31 01:32:24;;;;;;;6.03;2.22;;;;;;;12.30;84.04;101734.50;5105253;28;20043;-73
2021/12/31 01:34:50;;;;;;;6.40;2.45;;;;;;;12.32;84.02;101731.88;5079426;28;20491;-73
2021/12/31 01:37:15;;;;;;;5.90;2.42;;;;;;;12.34;83.77;101732.75;5084243;28;20131;-72
2021/12/31 01:39:42;;;;;;;5.20;2.60;;;;;;;12.32;83.86;101734.50;5068704;28;20030;-72
2021/12/31 01:42:13;;;;;;;4.93;2.80;;;;;;;12.30;83.76;101724.00;5091557;28;20070;-72
2021/12/31 01:44:46;;;;;;;4.88;2.60;;;;;;;12.33;83.59;101733.63;5101477;28;20024;-72
2021/12/31 01:47:21;;;;;;;2.90;2.55;;;;;;;12.33;83.70;101731.00;5084058;28;20035;-74
2021/12/31 01:49:58;;;;;;;9.50;2.47;;;;;;;12.34;83.78;101742.38;5093039;28;20381;-72
2021/12/31 01:52:24;;;;;;;6.05;2.30;;;;;;;12.34;83.69;101748.53;5097536;28;20032;-72
2021/12/31 01:54:50;;;;;;;5.97;2.60;;;;;;;12.33;83.53;101746.75;5101782;27;20467;-73
2021/12/31 01:57:17;;;;;;;5.97;2.00;;;;;;;12.35;83.24;101750.25;5091540;27;20130;-73
2021/12/31 01:59:45;;;;;;;3.58;2.35;;;;;;;12.33;83.65;101748.53;5101741;27;20522;-73
2021/12/31 02:02:10;;;;;;;7.90;2.60;;;;;;;12.33;82.93;101754.66;5084097;28;20467;-73
2021/12/31 02:04:40;;;;;;;9.80;2.90;;;;;;;12.33;83.21;101757.28;5107495;27;20072;-73
2021/12/31 02:07:07;;;;;;;6.38;2.05;;;;;;;12.35;83.14;101759.91;5108456;28;20124;-73
2021/12/31 02:09:38;;;;;;;6.32;2.00;;;;;;;12.34;83.11;101764.28;5096370;28;20162;-73
2021/12/31 02:12:04;;;;;;;5.35;2.35;;;;;;;12.32;83.72;101754.66;5111551;27;20038;-73
2021/12/31 02:14:31;;;;;;;6.20;2.58;;;;;;;12.32;82.83;101765.16;5091584;27;20039;-72
2021/12/31 02:16:56;;;;;;;3.92;2.33;;;;;;;12.31;83.43;101764.28;5110633;27;20489;-72
2021/12/31 02:19:28;;;;;;;6.40;2.72;;;;;;;12.29;83.33;101763.44;5083365;28;20039;-73
2021/12/31 02:21:55;;;;;;;6.00;2.80;;;;;;;12.28;83.21;101759.03;5104265;27;20030;-73
2021/12/31 02:24:22;;;;;;;5.57;2.85;;;;;;;12.29;83.22;101755.53;5088241;28;20118;-73
2021/12/31 02:26:48;;;;;;;5.40;2.67;;;;;;;12.29;83.19;101755.53;5089031;28;20085;-72
2021/12/31 02:29:14;;;;;;;8.30;3.13;;;;;;;12.28;83.19;101753.78;5124144;27;20030;-72
2021/12/31 02:31:39;;;;;;;7.55;2.65;;;;;;;12.29;83.10;101750.28;5101728;27;20118;-73
2021/12/31 02:34:07;;;;;;;4.85;2.63;;;;;;;12.32;82.77;101754.66;5080461;28;20045;-73
2021/12/31 02:36:32;;;;;;;3.85;2.33;;;;;;;12.30;82.81;101752.03;5107630;28;20023;-73
2021/12/31 02:38:58;;;;;;;4.03;2.50;;;;;;;12.30;82.83;101749.41;5075642;28;20100;-74
2021/12/31 02:41:23;;;;;;;2.38;1.90;;;;;;;12.28;82.73;101746.78;5082147;27;20073;-72
2021/12/31 02:43:49;;;;;;;6.55;2.75;;;;;;;12.28;83.06;101744.16;5084495;27;20100;-73
2021/12/31 02:46:16;;;;;;;4.43;2.60;;;;;;;12.28;82.95;101740.66;5079567;27;20089;-73
2021/12/31 02:48:41;;;;;;;8.50;2.47;;;;;;;12.26;83.09;101750.31;5092004;28;20039;-72
2021/12/31 02:51:06;;;;;;;6.85;2.58;;;;;;;12.25;82.95;101748.53;5099779;28;20015;-73
2021/12/31 02:53:36;;;;;;;9.40;3.33;;;;;;;12.24;83.19;101738.91;5074798;28;20080;-72
2021/12/31 02:56:05;;;;;;;4.55;3.05;;;;;;;12.23;83.26;101739.81;5103671;28;20028;-77
2021/12/31 02:58:36;;;;;;;5.03;2.22;;;;;;;12.22;82.97;101732.78;5099828;28;20038;-78
2021/12/31 03:01:04;;;;;;;3.55;2.47;;;;;;;12.21;83.01;101723.16;5099738;28;20047;-77
2021/12/31 03:03:35;;;;;;;7.43;2.70;;;;;;;12.21;83.05;101731.03;5100771;28;20100;-76
2021/12/31 03:06:01;;;;;;;5.55;2.30;;;;;;;12.21;83.06;101728.41;5100849;28;20055;-78
2021/12/31 03:08:33;;;;;;;4.70;2.13;;;;;;;12.17;83.35;101734.56;5086261;28;20096;-78
2021/12/31 03:11:01;;;;;;;10.32;2.72;;;;;;;12.18;83.31;101736.31;5102532;28;20031;-78
2021/12/31 03:13:28;;;;;;;6.53;2.30;;;;;;;12.18;83.24;101736.31;5102517;28;20059;-78
2021/12/31 03:15:54;;;;;;;9.73;2.72;;;;;;;12.16;83.40;101732.81;5099450;28;20054;-77
2021/12/31 03:18:22;;;;;;;4.32;2.35;;;;;;;12.13;83.14;101729.31;5084320;28;20020;-77
2021/12/31 03:20:57;;;;;;;8.15;2.38;;;;;;;12.12;83.15;101730.22;5071185;28;20113;-77
2021/12/31 03:23:28;;;;;;;8.02;3.00;;;;;;;12.12;83.09;101724.97;5080845;28;20035;-77
2021/12/31 03:25:53;;;;;;;6.00;2.58;;;;;;;12.11;83.21;101719.69;5080247;28;20030;-77
2021/12/31 03:28:20;;;;;;;8.57;2.65;;;;;;;12.09;83.05;101722.31;5084718;28;20031;-76
2021/12/31 03:30:51;;;;;;;8.43;3.28;;;;;;;12.07;83.41;101718.84;5093835;28;20028;-78
2021/12/31 03:33:17;;;;;;;5.10;2.22;;;;;;;12.06;83.45;101727.59;5098126;28;20032;-77
2021/12/31 03:35:42;;;;;;;4.38;2.22;;;;;;;12.04;83.09;101725.84;5083693;28;20047;-78
2021/12/31 03:38:08;;;;;;;5.68;2.85;;;;;;;12.01;83.08;101724.13;5102030;28;20032;-77
2021/12/31 03:40:34;;;;;;;4.63;2.33;;;;;;;12.00;83.29;101725.00;5106117;28;20055;-78
2021/12/31 03:43:00;;;;;;;9.85;3.05;;;;;;;12.01;83.03;101724.13;5098769;28;20077;-76
2021/12/31 03:45:27;;;;;;;8.75;3.10;;;;;;;11.97;83.27;101722.38;5080257;28;20050;-77
2021/12/31 03:47:53;;;;;;;6.20;3.50;;;;;;;11.95;83.57;101714.50;5078062;28;20808;-77
2021/12/31 03:50:18;;;;;;;4.63;2.42;;;;;;;11.93;83.76;101715.34;5061709;28;20400;-77
2021/12/31 03:52:44;;;;;;;4.05;2.63;;;;;;;11.89;83.51;101718.88;5085103;28;20058;-77
2021/12/31 03:55:14;;;;;;;4.75;2.03;;;;;;;11.89;83.50;101714.47;5078267;28;20020;-77
2021/12/31 03:57:42;;;;;;;9.23;2.90;;;;;;;11.88;83.39;101709.22;5099653;28;20024;-77
2021/12/31 04:00:11;;;;;;;4.60;2.75;;;;;;;11.85;83.83;101717.13;5099084;28;20032;-76
2021/12/31 04:02:36;;;;;;;6.32;2.55;;;;;;;11.83;83.93;101714.50;5093160;28;20026;-77
2021/12/31 04:05:03;;;;;;;5.90;2.75;;;;;;;11.83;83.96;101711.03;5106230;28;20019;-77
2021/12/31 04:07:28;;;;;;;5.80;3.05;;;;;;;11.82;83.83;101711.88;5096600;28;20042;-76
2021/12/31 04:09:54;;;;;;;8.93;3.03;;;;;;;11.82;83.92;101706.63;5086555;28;20027;-76
2021/12/31 04:12:19;;;;;;;7.70;2.95;;;;;;;11.82;83.90;101709.25;5097325;28;20079;-75
2021/12/31 04:14:45;;;;;;;6.63;2.97;;;;;;;11.83;83.75;101711.88;5087926;28;20040;-76
2021/12/31 04:17:10;;;;;;;4.63;2.25;;;;;;;11.81;83.61;101715.38;5086455;28;20499;-75
2021/12/31 04:19:38;;;;;;;7.63;3.22;;;;;;;11.83;83.53;101705.78;5110398;28;20046;-77
2021/12/31 04:22:04;;;;;;;6.13;2.78;;;;;;;11.84;83.34;101707.50;5075819;28;20036;-76
2021/12/31 04:24:51;;;;;;;6.25;3.13;;;;;;;11.84;83.71;101705.75;5105115;28;20093;-75
2021/12/31 04:27:15;;;;;;;7.03;2.58;;;;;;;11.81;83.87;101704.88;5103673;28;20050;-75
2021/12/31 04:29:41;;;;;;;7.50;3.42;;;;;;;11.81;83.94;101711.03;5093363;28;20127;-76
2021/12/31 04:32:07;;;;;;;6.43;2.80;;;;;;;11.82;84.03;101706.63;5085344;28;20031;-78
2021/12/31 04:34:33;;;;;;;9.68;3.30;;;;;;;11.82;83.98;101710.13;5085168;28;20451;-76
2021/12/31 04:36:58;;;;;;;4.72;2.95;;;;;;;11.81;84.38;101704.88;5069867;28;20153;-76
2021/12/31 04:39:24;;;;;;;4.18;3.30;;;;;;;11.82;83.87;101696.13;5083076;28;20115;-76
2021/12/31 04:41:50;;;;;;;6.25;2.60;;;;;;;11.83;83.72;101695.25;5093167;28;20380;-76
2021/12/31 04:44:18;;;;;;;6.25;2.70;;;;;;;11.84;84.07;101683.84;5086595;28;20178;-78
2021/12/31 04:46:43;;;;;;;5.80;2.92;;;;;;;11.86;83.54;101679.50;5102399;28;20114;-76
2021/12/31 04:49:09;;;;;;;7.00;2.92;;;;;;;11.89;83.77;101679.47;5090905;28;20454;-78
2021/12/31 04:51:34;;;;;;;4.72;3.33;;;;;;;11.89;83.81;101676.84;5074494;28;20102;-77
2021/12/31 04:54:00;;;;;;;4.60;3.17;;;;;;;11.90;83.50;101670.72;5069058;28;20051;-77
2021/12/31 04:56:26;;;;;;;5.63;2.92;;;;;;;11.89;83.34;101676.84;5067643;28;20039;-73
2021/12/31 04:58:55;;;;;;;4.43;3.03;;;;;;;11.90;83.13;101682.09;5108463;28;20020;-71
2021/12/31 05:01:23;;;;;;;11.60;3.15;;;;;;;11.91;83.29;101686.47;5084524;28;20031;-72
2021/12/31 05:03:48;;;;;;;10.32;3.65;;;;;;;11.93;83.40;101697.88;5077115;28;20031;-71
2021/12/31 05:06:15;;;;;;;6.35;3.22;;;;;;;11.90;83.29;101689.97;5081431;28;20043;-72
2021/12/31 05:08:41;;;;;;;8.18;2.78;;;;;;;11.89;83.40;101688.22;5074086;28;20028;-73
2021/12/31 05:11:06;;;;;;;3.83;2.78;;;;;;;11.91;83.23;101682.97;5069172;28;20077;-73
2021/12/31 05:13:31;;;;;;;8.95;3.38;;;;;;;11.91;82.89;101691.72;5097183;28;20118;-71
2021/12/31 05:16:02;;;;;;;4.55;3.00;;;;;;;11.94;82.60;101698.75;5082873;28;20415;-72
2021/12/31 05:18:27;;;;;;;8.10;3.30;;;;;;;11.92;82.90;101689.97;5068697;28;20052;-72
2021/12/31 05:20:53;;;;;;;6.47;3.03;;;;;;;11.90;83.35;101692.59;5081219;28;20102;-72
2021/12/31 05:23:19;;;;;;;7.35;2.53;;;;;;;11.92;82.96;101692.59;5104266;28;20130;-72
2021/12/31 05:25:46;;;;;;;5.10;2.65;;;;;;;11.92;83.13;101682.09;5099075;27;20391;-73
2021/12/31 05:28:12;;;;;;;8.20;3.80;;;;;;;11.90;83.11;101678.59;5069875;28;20085;-71
2021/12/31 05:30:38;;;;;;;8.80;2.97;;;;;;;11.91;82.87;101682.97;5071946;28;20040;-73
2021/12/31 05:33:03;;;;;;;4.68;3.05;;;;;;;11.91;82.62;101685.59;5074934;28;20028;-71
2021/12/31 05:35:29;;;;;;;11.43;2.90;;;;;;;11.91;82.73;101673.34;5101541;28;20032;-73
2021/12/31 05:37:57;;;;;;;5.35;3.28;;;;;;;11.90;82.64;101673.34;5059739;28;20028;-72
2021/12/31 05:40:23;;;;;;;8.00;2.90;;;;;;;11.88;82.84;101662.84;5107998;28;20031;-72
2021/12/31 05:42:48;;;;;;;5.68;3.15;;;;;;;11.88;82.40;101660.22;5082580;28;20399;-72
2021/12/31 05:45:13;;;;;;;5.93;2.75;;;;;;;11.88;82.45;101660.22;5077723;28;20031;-73
2021/12/31 05:47:39;;;;;;;9.90;3.63;;;;;;;11.87;82.23;101653.22;5081051;28;20035;-70
2021/12/31 05:50:08;;;;;;;4.47;2.55;;;;;;;11.84;81.91;101648.00;5107119;28;20111;-73
2021/12/31 05:52:34;;;;;;;4.68;2.88;;;;;;;11.84;81.84;101647.09;5101385;28;20068;-74
2021/12/31 05:55:08;;;;;;;8.55;2.72;;;;;;;11.81;81.44;101642.75;5108032;28;20430;-72
2021/12/31 05:57:33;;;;;;;4.82;2.47;;;;;;;11.79;81.19;101627.00;5120037;27;20117;-71
2021/12/31 05:59:59;;;;;;;4.10;2.78;;;;;;;11.74;81.48;101638.41;5094468;27;20027;-72
2021/12/31 06:02:24;;;;;;;7.22;2.78;;;;;;;11.67;81.79;101640.16;5112023;27;20057;-72
2021/12/31 06:04:52;;;;;;;6.95;2.95;;;;;;;11.62;81.54;101641.91;5106157;27;20110;-72
2021/12/31 06:07:17;;;;;;;6.40;3.03;;;;;;;11.52;82.47;101635.84;5099894;28;20027;-73
2021/12/31 06:09:43;;;;;;;8.65;2.58;;;;;;;11.48;82.24;101644.59;5093695;27;20313;-73
2021/12/31 06:12:11;;;;;;;5.78;2.67;;;;;;;11.42;82.58;101645.50;5076890;27;20031;-71
2021/12/31 06:14:37;;;;;;;8.30;2.75;;;;;;;11.41;82.51;101637.63;5093585;27;20556;-72
2021/12/31 06:17:06;;;;;;;3.00;2.35;;;;;;;11.37;82.60;101646.38;5082868;27;20019;-71
2021/12/31 06:19:33;;;;;;;7.20;2.90;;;;;;;11.32;82.64;101658.63;5104030;27;20057;-71
2021/12/31 06:21:58;;;;;;;5.55;2.95;;;;;;;11.25;82.78;101648.16;5126107;27;20110;-72
2021/12/31 06:24:24;;;;;;;7.65;2.72;;;;;;;11.22;82.71;101655.13;5088288;27;20134;-72
2021/12/31 06:26:49;;;;;;;3.33;2.83;;;;;;;11.16;82.72;101663.91;5080269;28;20461;-71
2021/12/31 06:29:15;;;;;;;7.82;3.00;;;;;;;11.12;83.21;101656.91;5097090;28;20400;-71
2021/12/31 06:31:40;;;;;;;4.28;2.45;;;;;;;11.08;83.31;101666.53;5065273;27;20032;-72
2021/12/31 06:34:05;;;;;;;5.28;3.13;;;;;;;11.04;83.70;101669.16;5102209;27;20031;-72
2021/12/31 06:36:31;;;;;;;10.70;2.63;;;;;;;11.02;83.67;101665.66;5108540;28;20118;-71
2021/12/31 06:38:58;;;;;;;6.00;3.45;;;;;;;10.98;83.46;101670.03;5088128;27;20027;-71
2021/12/31 06:41:23;;;;;;;5.28;2.63;;;;;;;10.94;83.44;101663.03;5091699;27;20065;-71
2021/12/31 06:43:49;;;;;;;4.53;2.60;;;;;;;10.89;83.59;101670.03;5091202;27;20019;-72
2021/12/31 06:46:14;;;;;;;4.85;2.80;;;;;;;10.86;84.00;101676.16;5079397;27;20059;-72
2021/12/31 06:48:40;;;;;;;6.80;3.10;;;;;;;10.84;83.85;101688.38;5089201;28;20032;-72
2021/12/31 06:51:05;;;;;;;8.05;2.88;;;;;;;10.83;84.45;101691.00;5089279;27;20399;-72
2021/12/31 06:53:31;;;;;;;5.15;2.85;;;;;;;10.81;84.05;101696.25;5090877;27;20063;-71
2021/12/31 06:55:56;;;;;;;4.00;2.50;;;;;;;10.76;83.95;101695.38;5085486;27;20058;-72
2021/12/31 06:58:22;;;;;;;4.70;2.70;;;;;;;10.75;84.27;101681.38;5087166;28;20103;-73
2021/12/31 07:00:50;;;;;;;6.28;2.90;;;;;;;10.75;84.21;101685.75;5086728;28;20038;-73
2021/12/31 07:03:15;;;;;;;5.70;2.88;;;;;;;10.70;84.04;101684.88;5094466;28;20138;-72
2021/12/31 07:05:42;;;;;;;7.75;3.20;;;;;;;10.67;84.35;101695.34;5070714;27;20225;-73
2021/12/31 07:08:08;;;;;;;11.82;3.75;;;;;;;10.63;84.08;101702.34;5079205;28;20027;-72
2021/12/31 07:10:34;;;;;;;4.35;2.88;;;;;;;10.58;84.22;101706.69;5081496;28;20376;-72
2021/12/31 07:13:10;;;;;;;9.10;3.28;;;;;;;10.54;84.59;101689.22;5086559;28;20461;-72
2021/12/31 07:15:44;;;;;;;5.95;3.03;;;;;;;10.52;84.70;101704.06;5125757;28;20038;-72
2021/12/31 07:18:10;;;;;;;5.25;3.25;;;;;;;10.48;84.90;101703.19;5110326;28;20454;-72
2021/12/31 07:20:36;;;;;;;4.80;3.42;;;;;;;10.45;84.77;101687.44;5099786;28;20487;-73
2021/12/31 07:23:07;;;;;;;10.50;3.50;;;;;;;10.42;84.95;101683.97;5099942;28;20106;-72
2021/12/31 07:25:32;;;;;;;;;;;;;;;10.47;84.88;101692.69;5106576;28;20039;-72
2021/12/31 07:27:58;;;;;;;7.35;3.40;;;;;;;10.43;85.29;101690.94;5109304;28;19908;-72
2021/12/31 07:30:26;;;;;;;4.85;3.20;;;;;;;10.40;85.39;101694.41;5069535;28;20027;-72
2021/12/31 07:32:51;;;;;;;6.07;3.33;;;;;;;10.41;85.21;101688.31;5099958;28;20036;-73
2021/12/31 07:35:16;;;;;;;5.07;3.55;;;;;;;10.42;85.24;101695.31;5075895;28;20034;-72
2021/12/31 07:37:42;;;;;;;3.92;2.60;;;;;;;10.40;84.96;101694.41;5078407;28;20031;-72
2021/12/31 07:40:12;;;;;;;6.57;3.08;;;;;;;10.40;85.06;101686.56;5092161;27;20031;-72
2021/12/31 07:42:37;;;;;;;8.07;3.10;;;;;;;10.41;85.05;101690.94;5084499;28;20024;-72
2021/12/31 07:45:04;;;;;;;9.10;2.83;;;;;;;10.37;85.13;101695.31;5080593;28;20046;-72
2021/12/31 07:47:30;;;;;;;5.47;3.53;;;;;;;10.34;85.03;101699.63;5088177;27;20047;-72
2021/12/31 07:49:55;;;;;;;5.10;2.75;;;;;;;10.35;85.35;101690.91;5087084;28;20024;-73
2021/12/31 07:52:21;;;;;;;5.38;2.80;;;;;;;10.34;84.88;101699.63;5105553;27;20157;-73
2021/12/31 07:54:46;;;;;;;7.35;3.17;;;;;;;10.31;85.25;101703.09;5102368;27;20046;-72
2021/12/31 07:57:12;;;;;;;7.75;3.03;;;;;;;10.31;84.89;101705.72;5095481;27;20479;-72
2021/12/31 07:59:37;;;;;;;6.80;3.15;;;;;;;10.32;85.18;101712.72;5112007;27;20069;-72
2021/12/31 08:02:03;;;;;;;9.40;3.33;;;;;;;10.32;85.02;101714.47;5113012;27;20046;-72
2021/12/31 08:04:28;;;;;;;8.80;3.90;;;;;;;10.31;84.73;101707.47;5078511;28;20121;-72
2021/12/31 08:06:54;;;;;;;6.45;3.25;;;;;;;10.33;84.86;101717.09;5102497;27;20030;-72
2021/12/31 08:09:32;;;;;;;6.15;3.17;;;;;;;10.35;84.86;101710.13;5095706;27;20035;-72
2021/12/31 08:11:58;;;;;;;10.68;3.78;;;;;;;10.35;84.74;101711.88;5104998;27;20085;-72
2021/12/31 08:14:23;;;;;;;4.75;2.97;;;;;;;10.34;84.75;101707.50;5075041;27;20027;-73
2021/12/31 08:16:48;;;;;;;7.32;3.95;;;;;;;10.34;85.01;101711.03;5092371;27;20070;-72
2021/12/31 08:19:14;;;;;;;5.55;3.28;;;;;;;10.37;84.52;101707.50;5069835;27;20054;-72
2021/12/31 08:21:39;;;;;;;8.18;3.72;;;;;;;10.41;84.47;101714.50;5087090;27;20035;-72
2021/12/31 08:24:05;;;;;;;5.30;3.50;;;;;;;10.44;84.27;101705.78;5078109;27;20027;-72
2021/12/31 08:26:33;;;;;;;10.60;3.75;;;;;;;10.47;83.98;101713.66;5113487;27;20121;-72
2021/12/31 08:28:58;;;;;;;6.38;3.13;;;;;;;10.51;84.35;101715.41;5090095;28;20027;-73
2021/12/31 08:31:24;;;;;;;7.80;3.08;;;;;;;10.53;83.90;101705.78;5095439;27;20395;-72
2021/12/31 08:33:49;;;;;;;8.02;2.90;;;;;;;10.59;83.77;101695.34;5087128;28;20222;-72
2021/12/31 08:36:14;;;;;;;4.68;2.38;;;;;;;10.65;83.10;101695.34;5094946;27;20487;-71
2021/12/31 08:38:41;;;;;;;6.15;3.15;;;;;;;10.70;83.37;101696.25;5107082;28;20059;-71
2021/12/31 08:41:07;;;;;;;5.90;2.97;;;;;;;10.75;83.18;101712.84;5105086;28;20019;-71
2021/12/31 08:43:33;;;;;;;2.83;2.40;;;;;;;10.81;82.82;101698.00;5111970;27;20053;-71
2021/12/31 08:45:58;;;;;;;6.80;3.08;;;;;;;10.87;82.47;101703.25;5104969;27;20019;-72
2021/12/31 08:48:23;;;;;;;3.75;2.97;;;;;;;10.89;82.31;101706.75;5086878;27;20038;-72
2021/12/31 08:50:49;;;;;;;6.60;2.97;;;;;;;11.00;83.12;101706.75;5089872;28;20031;-72
2021/12/31 08:53:17;;;;;;;2.47;2.25;;;;;;;11.12;82.48;101695.38;5105613;27;20055;-71
2021/12/31 08:55:44;;;;;;;5.82;2.60;;;;;;;11.16;81.09;101700.63;5096188;27;20119;-72
2021/12/31 08:58:11;;;;;;;4.82;2.30;;;;;;;11.14;81.29;101685.78;5095858;27;20670;-71
2021/12/31 09:00:37;;;;;;;5.63;2.67;;;;;;;11.11;81.48;101696.28;5066999;27;20036;-72
2021/12/31 09:03:03;;;;;;;4.57;2.20;;;;;;;11.12;81.57;101690.13;5091138;28;20028;-73
2021/12/31 09:05:30;;;;;;;6.13;2.50;;;;;;;11.13;81.03;101681.38;5103603;27;20031;-72
2021/12/31 09:07:56;;;;;;;4.80;2.90;;;;;;;11.19;80.35;101684.00;5096914;27;20077;-70
2021/12/31 09:10:21;;;;;;;7.22;3.00;;;;;;;11.22;80.99;101694.47;5106918;27;20031;-71
2021/12/31 09:12:48;;;;;;;9.23;3.17;;;;;;;11.26;79.80;101684.00;5106502;27;20046;-71
2021/12/31 09:15:14;;;;;;;4.28;2.38;;;;;;;11.27;80.16;101683.13;5083971;28;20066;-72
2021/12/31 09:17:40;;;;;;;3.63;2.58;;;;;;;11.31;79.74;101684.00;5097748;27;20039;-71
2021/12/31 09:20:07;;;;;;;3.08;2.20;;;;;;;11.31;80.24;101702.38;5097386;27;20128;-72
2021/12/31 09:22:32;;;;;;;7.97;2.50;;;;;;;11.32;80.40;101706.75;5094588;27;20023;-71
2021/12/31 09:25:01;;;;;;;5.45;2.60;;;;;;;11.33;80.07;101682.22;5079871;27;20051;-71
2021/12/31 09:27:29;;;;;;;5.80;2.20;;;;;;;11.36;80.10;101691.84;5096492;27;20078;-70
2021/12/31 09:29:55;;;;;;;5.35;2.78;;;;;;;11.42;79.74;101687.50;5110087;27;20027;-72
2021/12/31 09:32:21;;;;;;;4.25;2.65;;;;;;;11.54;79.26;101683.09;5092146;27;20132;-71
2021/12/31 09:34:48;;;;;;;3.05;2.50;;;;;;;11.70;79.46;101700.53;5099622;28;20073;-72
2021/12/31 09:37:14;;;;;;;6.55;2.58;;;;;;;11.87;78.47;101704.88;5073645;28;20023;-72
2021/12/31 09:39:42;;;;;;;4.85;3.00;;;;;;;12.06;77.91;101701.31;5104284;27;20051;-72
2021/12/31 09:42:08;;;;;;;4.15;3.03;;;;;;;12.13;76.91;101700.41;5069244;28;20031;-70
2021/12/31 09:44:38;;;;;;;6.75;3.15;;;;;;;12.05;77.01;101717.09;5112868;27;20428;-72
2021/12/31 09:47:10;;;;;;;6.15;3.05;;;;;;;11.91;77.81;101720.63;5084674;27;20035;-71
2021/12/31 09:49:38;;;;;;;5.25;2.70;;;;;;;11.78;77.65;101719.78;5071744;27;20039;-72
2021/12/31 09:52:04;;;;;;;4.45;2.53;;;;;;;11.68;78.23;101711.91;5100825;27;20031;-72
2021/12/31 09:54:29;;;;;;;5.68;2.97;;;;;;;11.63;78.48;101726.81;5082311;28;20108;-71
2021/12/31 09:56:56;;;;;;;5.63;3.40;;;;;;;11.58;78.37;101729.47;5082910;27;20035;-71
2021/12/31 09:59:23;;;;;;;5.28;3.00;;;;;;;11.56;78.66;101741.69;5083767;28;20074;-71
2021/12/31 10:01:51;;;;;;;4.00;2.83;;;;;;;11.56;79.09;101733.81;5094639;28;20533;-72
2021/12/31 10:04:20;;;;;;;11.13;5.07;;;;;;;11.57;79.15;101735.59;5084554;28;20019;-71
2021/12/31 10:07:10;;;;;;;9.43;3.10;;;;;;;11.62;79.52;101744.31;5094213;28;20035;-72
2021/12/31 10:09:38;;;;;;;;;;;;;;;11.65;79.89;101731.19;5096051;28;20016;-72
2021/12/31 10:12:04;;;;;;;4.55;2.97;;;;;;;11.58;78.72;101713.72;5106543;27;19942;-72
2021/12/31 10:14:38;;;;;;;3.53;2.70;;;;;;;11.56;79.28;101715.44;5072607;27;20495;-73
2021/12/31 10:17:11;;;;;;;3.25;2.47;;;;;;;11.51;78.99;101740.84;5103429;28;20519;-72
2021/12/31 10:19:54;;;;;;;5.78;2.83;;;;;;;11.51;79.56;101738.22;5101696;27;20066;-72
2021/12/31 10:22:20;;;;;;;2.38;2.17;;;;;;;11.46;79.25;101726.84;5101838;27;20043;-71
2021/12/31 10:24:47;;;;;;;3.67;2.67;;;;;;;11.43;79.01;101715.50;5070596;27;20470;-72
2021/12/31 10:27:12;;;;;;;5.80;2.60;;;;;;;11.41;79.23;101706.72;5068251;27;20468;-72
2021/12/31 10:30:03;;;;;;;5.53;2.90;;;;;;;11.41;79.80;101700.63;5103728;27;20023;-73
2021/12/31 10:32:33;;;;;;;5.32;2.92;;;;;;;11.40;79.46;101717.22;5104336;28;20038;-72
2021/12/31 10:35:13;;;;;;;5.40;2.67;;;;;;;11.41;79.74;101700.63;5085177;28;20028;-72
2021/12/31 10:38:01;;;;;;;5.07;2.33;;;;;;;11.41;79.72;101698.00;5115660;27;20035;-73
2021/12/31 10:40:34;;;;;;;4.15;2.28;;;;;;;11.44;79.64;101713.72;5104696;27;20258;-72
2021/12/31 10:43:10;;;;;;;4.47;2.72;;;;;;;11.51;79.64;101717.22;5095613;27;20038;-72
2021/12/31 10:45:36;;;;;;;6.30;2.60;;;;;;;11.56;79.39;101718.06;5113233;27;20035;-71
2021/12/31 10:48:10;;;;;;;9.20;2.50;;;;;;;11.61;78.85;101709.31;5108841;27;20012;-70
2021/12/31 10:50:37;;;;;;;4.40;2.33;;;;;;;11.61;78.94;101713.69;5109228;27;20054;-72
2021/12/31 10:53:11;;;;;;;4.75;2.22;;;;;;;11.61;79.46;101713.69;5092935;27;20043;-72
2021/12/31 10:55:44;;;;;;;3.83;2.30;;;;;;;11.65;79.43;101727.69;5113247;27;20058;-71
2021/12/31 10:58:12;;;;;;;3.63;2.92;;;;;;;11.65;79.41;101723.31;5109856;27;20019;-71
2021/12/31 11:00:41;;;;;;;5.07;2.13;;;;;;;11.69;79.49;101726.81;5108978;27;20487;-72
2021/12/31 11:03:07;;;;;;;3.72;2.15;;;;;;;11.72;78.92;101732.94;5106460;27;20026;-71
2021/12/31 11:05:34;;;;;;;5.88;2.67;;;;;;;11.74;79.21;101720.66;5089893;28;20028;-71
2021/12/31 11:08:02;;;;;;;5.75;3.25;;;;;;;11.79;78.98;101716.28;5089822;27;20026;-72
2021/12/31 11:10:32;;;;;;;3.40;2.65;;;;;;;11.99;79.10;101704.84;5083475;27;20043;-72
2021/12/31 11:12:58;;;;;;;2.95;2.42;;;;;;;12.54;78.06;101703.72;5105974;28;20121;-71
2021/12/31 11:15:24;;;;;;;7.85;3.60;;;;;;;12.71;75.64;101700.09;5080965;28;20126;-71
2021/12/31 11:17:53;;;;;;;8.00;3.85;;;;;;;12.91;75.13;101694.69;5083422;28;20023;-71
2021/12/31 11:20:23;;;;;;;8.15;7.35;;;;;;;13.17;75.05;101684.84;5100826;28;20046;-72
2021/12/31 11:22:49;;;;;;;;;;;;;;;13.40;76.68;101686.38;5094120;28;20077;-72
2021/12/31 11:25:24;;;;;;;17.05;10.45;;;;;;;14.32;72.32;101688.81;5091620;28;19916;-71
2021/12/31 11:27:51;;;;;;;4.63;3.63;;;;;;;14.52;70.42;101691.19;5086145;28;20379;-71